Time;durP1;ratioP1;P1;durP2;ratioP2;P2;SDS_P1;SDS_P2;PMS_P1;PMS_P2;Temp;Humidity;BMP_temperature;BMP_pressure;BME280_temperature;BME280_humidity;BME280_pressure;Samples;Min_cycle;Max_cycle;Signal;HPM_P1;HPM_P2
2021/11/29 00:01:44;;;;;;;46.07;25.00;;;;;;;2.91;92.89;99979.41;4951246;28;20640;-75
2021/11/29 00:04:10;;;;;;;48.53;25.80;;;;;;;2.88;92.58;99971.69;4954319;28;20200;-75
2021/11/29 00:06:35;;;;;;;44.67;24.70;;;;;;;2.87;92.14;99982.63;4954209;28;20201;-75
2021/11/29 00:09:01;;;;;;;43.33;22.50;;;;;;;2.89;92.25;99978.50;4953953;28;20239;-75
2021/11/29 00:11:27;;;;;;;46.37;24.10;;;;;;;2.86;91.55;99985.97;4973579;28;20219;-75
2021/11/29 00:13:52;;;;;;;43.67;22.83;;;;;;;2.86;91.95;99988.50;4953876;28;20187;-75
2021/11/29 00:16:18;;;;;;;45.50;23.77;;;;;;;2.86;91.30;99994.41;4968505;28;20567;-76
2021/11/29 00:18:43;;;;;;;44.03;22.70;;;;;;;2.86;91.32;99996.94;4953391;28;20197;-75
2021/11/29 00:21:11;;;;;;;41.13;22.37;;;;;;;2.86;91.98;99996.94;4968320;28;20244;-75
2021/11/29 00:23:37;;;;;;;45.27;22.73;;;;;;;2.86;91.30;100004.53;4953645;29;20196;-75
2021/11/29 00:26:03;;;;;;;41.90;22.20;;;;;;;2.83;91.83;100008.59;4953728;28;20316;-75
2021/11/29 00:28:29;;;;;;;42.47;21.67;;;;;;;2.84;91.58;100008.66;4953485;28;20303;-75
2021/11/29 00:30:55;;;;;;;43.80;23.10;;;;;;;2.85;91.15;100007.84;4953203;28;20200;-76
2021/11/29 00:33:20;;;;;;;40.27;22.27;;;;;;;2.86;91.39;100016.28;4953620;28;20192;-75
2021/11/29 00:35:46;;;;;;;40.43;22.00;;;;;;;2.83;91.04;100014.50;4953437;28;20259;-75
2021/11/29 00:38:12;;;;;;;40.73;21.87;;;;;;;2.84;91.59;100010.31;4953291;28;20191;-76
2021/11/29 00:40:39;;;;;;;40.60;21.10;;;;;;;2.83;91.39;100013.63;4953526;28;20678;-76
2021/11/29 00:43:05;;;;;;;38.73;21.10;;;;;;;2.83;91.68;100009.47;4953570;28;20200;-75
2021/11/29 00:45:30;;;;;;;41.50;22.13;;;;;;;2.80;91.72;100016.09;4953234;28;20189;-75
2021/11/29 00:47:56;;;;;;;38.67;21.60;;;;;;;2.78;91.72;100016.00;4952995;28;20216;-75
2021/11/29 00:50:22;;;;;;;38.50;20.90;;;;;;;2.73;91.54;100009.94;4953103;28;20196;-75
2021/11/29 00:52:48;;;;;;;40.50;22.30;;;;;;;2.76;91.59;100014.25;4953009;28;20185;-75
2021/11/29 00:55:15;;;;;;;40.60;21.03;;;;;;;2.72;91.21;100020.81;4953236;28;20185;-75
2021/11/29 00:57:41;;;;;;;42.97;23.03;;;;;;;2.70;91.67;100016.53;4953107;28;20195;-75
2021/11/29 01:00:11;;;;;;;40.20;22.50;;;;;;;2.69;90.94;100022.38;4952988;28;20264;-75
2021/11/29 01:02:37;;;;;;;40.70;20.90;;;;;;;2.69;90.92;100027.44;4952861;28;20240;-75
2021/11/29 01:05:04;;;;;;;41.33;22.47;;;;;;;2.66;91.26;100022.28;4953044;28;20917;-75
2021/11/29 01:07:29;;;;;;;38.67;21.03;;;;;;;2.68;91.13;100023.19;4952868;28;20285;-75
2021/11/29 01:09:55;;;;;;;40.10;21.20;;;;;;;2.66;91.04;100028.19;4952775;28;20181;-75
2021/11/29 01:12:20;;;;;;;38.43;21.37;;;;;;;2.65;91.10;100026.47;4951518;28;20698;-75
2021/11/29 01:14:46;;;;;;;40.67;21.17;;;;;;;2.66;90.91;100027.34;4952557;28;20200;-75
2021/11/29 01:17:11;;;;;;;39.07;21.47;;;;;;;2.64;90.94;100014.66;4952540;28;20725;-75
2021/11/29 01:19:38;;;;;;;39.87;21.13;;;;;;;2.61;91.05;100024.63;4952229;28;20611;-75
2021/11/29 01:22:04;;;;;;;39.83;21.03;;;;;;;2.55;91.05;100026.06;4952486;28;20209;-76
2021/11/29 01:24:30;;;;;;;33.80;19.03;;;;;;;2.52;90.90;100023.44;4952571;28;20186;-75
2021/11/29 01:26:56;;;;;;;34.20;18.70;;;;;;;2.45;90.37;100026.53;4952467;28;20201;-75
2021/11/29 01:29:21;;;;;;;34.23;19.60;;;;;;;2.35;90.58;100029.53;4952221;28;20228;-75
2021/11/29 01:31:47;;;;;;;34.17;18.77;;;;;;;2.24;89.91;100034.16;4952318;28;20205;-76
2021/11/29 01:34:14;;;;;;;35.97;19.50;;;;;;;2.23;90.62;100034.09;4952206;28;20208;-75
2021/11/29 01:36:40;;;;;;;33.53;18.23;;;;;;;2.11;90.66;100039.50;4952308;28;20192;-75
2021/11/29 01:39:07;;;;;;;34.93;18.87;;;;;;;2.07;90.27;100044.41;4952171;28;20193;-75
2021/11/29 01:41:33;;;;;;;36.20;18.67;;;;;;;2.13;90.25;100050.56;4973456;28;20217;-76
2021/11/29 01:43:58;;;;;;;35.00;19.07;;;;;;;2.15;89.75;100058.19;4952252;28;20200;-75
2021/11/29 01:46:24;;;;;;;33.37;17.80;;;;;;;2.07;89.71;100059.53;4952098;28;20182;-75
2021/11/29 01:48:51;;;;;;;36.40;19.77;;;;;;;2.01;90.41;100066.84;4950973;29;20690;-75
2021/11/29 01:51:17;;;;;;;35.77;18.90;;;;;;;1.97;90.29;100062.50;4951576;29;20584;-75
2021/11/29 01:53:43;;;;;;;37.23;19.67;;;;;;;1.97;89.96;100057.47;4952692;28;20268;-75
2021/11/29 01:56:09;;;;;;;36.00;19.60;;;;;;;1.90;90.47;100063.91;4951332;28;20213;-75
2021/11/29 01:58:38;;;;;;;34.40;18.63;;;;;;;1.94;90.54;100073.34;4952217;28;20181;-76
2021/11/29 02:01:24;;;;;;;33.53;18.53;;;;;;;1.91;90.20;100069.81;4952011;28;20229;-75
2021/11/29 02:03:56;;;;;;;35.23;18.87;;;;;;;1.91;90.54;100077.38;4952353;28;20181;-75
2021/11/29 02:06:22;;;;;;;35.70;19.53;;;;;;;1.93;90.24;100075.78;4952518;28;20181;-75
2021/11/29 02:08:47;;;;;;;37.30;19.43;;;;;;;1.95;90.31;100080.09;4951703;28;20622;-75
2021/11/29 02:11:13;;;;;;;36.27;19.30;;;;;;;1.99;90.63;100081.97;4952637;28;20209;-75
2021/11/29 02:13:39;;;;;;;39.87;19.73;;;;;;;2.03;91.27;100078.75;4952145;28;20297;-75
2021/11/29 02:16:07;;;;;;;38.07;18.87;;;;;;;2.03;91.03;100081.28;4951963;28;20858;-75
2021/11/29 02:18:33;;;;;;;35.63;17.50;;;;;;;2.03;91.17;100082.94;4951632;28;20188;-75
2021/11/29 02:21:05;;;;;;;37.50;19.50;;;;;;;2.00;92.04;100082.81;4951581;28;20232;-75
2021/11/29 02:23:32;;;;;;;37.40;18.50;;;;;;;1.98;92.02;100085.25;4951454;28;20677;-75
2021/11/29 02:25:57;;;;;;;36.87;18.27;;;;;;;1.91;91.30;100090.88;4950732;29;20185;-75
2021/11/29 02:28:24;;;;;;;34.33;17.10;;;;;;;1.90;91.25;100086.63;4951471;28;20697;-75
2021/11/29 02:30:50;;;;;;;32.03;17.07;;;;;;;1.86;91.13;100087.31;4951447;28;20208;-75
2021/11/29 02:33:15;;;;;;;31.63;16.70;;;;;;;1.85;91.61;100095.69;4951632;28;20193;-75
2021/11/29 02:35:41;;;;;;;26.90;15.07;;;;;;;1.72;91.91;100088.41;4952261;28;20716;-75
2021/11/29 02:38:07;;;;;;;24.67;14.37;;;;;;;1.73;91.50;100089.22;4951694;28;20317;-75
2021/11/29 02:40:33;;;;;;;25.17;13.70;;;;;;;1.66;90.51;100095.69;4951666;28;20185;-75
2021/11/29 02:42:59;;;;;;;20.77;13.07;;;;;;;1.57;91.23;100096.97;4951483;28;20240;-75
2021/11/29 02:45:26;;;;;;;22.83;13.37;;;;;;;1.57;90.48;100102.91;4951817;28;20666;-75
2021/11/29 02:47:51;;;;;;;21.07;11.80;;;;;;;1.50;91.15;100105.06;4951525;28;20213;-75
2021/11/29 02:50:17;;;;;;;19.50;11.37;;;;;;;1.48;91.18;100116.75;4950496;29;20193;-75
2021/11/29 02:52:43;;;;;;;21.00;11.93;;;;;;;1.43;90.02;100120.75;4951944;28;20297;-75
2021/11/29 02:55:09;;;;;;;18.73;10.90;;;;;;;1.37;90.34;100118.81;4951657;28;20266;-75
2021/11/29 02:57:35;;;;;;;18.47;10.67;;;;;;;1.25;90.49;100117.41;4951751;28;20712;-75
2021/11/29 03:00:01;;;;;;;21.27;11.60;;;;;;;1.21;91.32;100124.00;4951704;28;20196;-75
2021/11/29 03:02:31;;;;;;;19.73;11.47;;;;;;;1.17;90.68;100117.09;4950647;28;20617;-75
2021/11/29 03:04:57;;;;;;;17.07;10.03;;;;;;;1.10;90.02;100105.00;4951205;28;20177;-75
2021/11/29 03:07:22;;;;;;;17.63;10.37;;;;;;;1.05;90.80;100115.69;4951612;28;20603;-74
2021/11/29 03:09:48;;;;;;;17.43;10.70;;;;;;;1.05;90.65;100116.53;4951129;28;20213;-74
2021/11/29 03:12:14;;;;;;;19.93;11.07;;;;;;;0.97;90.59;100117.00;4950950;28;20205;-75
2021/11/29 03:14:40;;;;;;;19.03;11.27;;;;;;;0.94;91.00;100115.19;4949799;29;20196;-75
2021/11/29 03:17:07;;;;;;;17.70;10.30;;;;;;;0.92;91.32;100119.28;4950944;28;20650;-75
2021/11/29 03:19:35;;;;;;;18.60;10.53;;;;;;;0.91;91.37;100116.72;4950927;28;20220;-75
2021/11/29 03:22:05;;;;;;;21.83;11.83;;;;;;;0.85;91.15;100118.94;4951340;28;20247;-75
2021/11/29 03:24:30;;;;;;;20.87;10.97;;;;;;;0.82;91.76;100119.66;4965844;28;20659;-75
2021/11/29 03:26:56;;;;;;;19.53;10.83;;;;;;;0.77;91.04;100120.28;4951425;28;20302;-75
2021/11/29 03:29:22;;;;;;;19.20;11.07;;;;;;;0.73;91.18;100123.44;4949317;29;20231;-75
2021/11/29 03:31:52;;;;;;;19.63;11.17;;;;;;;0.72;91.86;100124.25;4951106;28;20605;-75
2021/11/29 03:34:20;;;;;;;18.53;10.43;;;;;;;0.73;92.02;100133.50;4951196;28;20197;-75
2021/11/29 03:36:47;;;;;;;20.77;11.30;;;;;;;0.74;92.57;100125.16;4953603;28;20217;-75
2021/11/29 03:39:16;;;;;;;21.07;11.10;;;;;;;0.74;91.55;100127.69;4953657;29;20185;-75
2021/11/29 03:41:43;;;;;;;20.93;11.30;;;;;;;0.75;92.30;100127.75;4954894;28;20201;-75
2021/11/29 03:44:09;;;;;;;21.53;10.97;;;;;;;0.78;92.12;100130.38;4954108;29;20321;-75
2021/11/29 03:46:34;;;;;;;21.93;10.40;;;;;;;0.74;92.61;100136.09;4954638;28;20189;-75
2021/11/29 03:49:00;;;;;;;19.93;11.27;;;;;;;0.81;92.55;100145.66;4969197;28;20584;-75
2021/11/29 03:51:26;;;;;;;18.30;10.47;;;;;;;0.81;93.12;100152.34;4951141;28;20702;-75
2021/11/29 03:53:51;;;;;;;20.20;11.37;;;;;;;0.81;93.00;100153.22;4954789;28;20602;-75
2021/11/29 03:56:17;;;;;;;22.33;11.23;;;;;;;0.82;92.46;100149.91;4954888;28;20185;-75
2021/11/29 03:58:42;;;;;;;20.73;11.53;;;;;;;0.84;92.35;100150.84;4953022;29;20189;-75
2021/11/29 04:01:08;;;;;;;22.33;11.20;;;;;;;0.84;92.97;100149.97;4954406;28;20216;-75
2021/11/29 04:03:34;;;;;;;23.50;12.53;;;;;;;0.80;92.79;100164.09;4954827;28;20648;-75
2021/11/29 04:06:00;;;;;;;28.50;13.77;;;;;;;0.82;93.07;100166.69;4954455;28;20200;-75
2021/11/29 04:08:25;;;;;;;22.90;11.97;;;;;;;0.82;93.52;100165.00;4954572;28;20213;-75
2021/11/29 04:10:51;;;;;;;27.17;13.40;;;;;;;0.84;93.14;100165.09;4954792;28;20610;-75
2021/11/29 04:13:17;;;;;;;23.13;11.97;;;;;;;0.83;92.67;100164.22;4954801;28;20240;-75
2021/11/29 04:15:43;;;;;;;24.27;12.23;;;;;;;0.87;93.75;100165.25;4954226;28;20225;-74
2021/11/29 04:18:08;;;;;;;23.70;12.93;;;;;;;0.86;92.60;100166.88;4953989;28;20192;-76
2021/11/29 04:20:34;;;;;;;22.87;12.13;;;;;;;0.89;93.29;100166.16;4954220;28;20240;-75
2021/11/29 04:23:00;;;;;;;25.43;12.83;;;;;;;0.92;93.04;100168.84;4954419;28;20766;-75
2021/11/29 04:25:28;;;;;;;27.07;13.17;;;;;;;0.92;93.44;100169.69;4952965;29;20197;-75
2021/11/29 04:27:56;;;;;;;29.20;13.33;;;;;;;0.93;93.48;100176.47;4954076;28;20307;-75
2021/11/29 04:30:25;;;;;;;28.27;13.30;;;;;;;0.95;93.22;100174.00;4953845;28;20617;-75
2021/11/29 04:32:53;;;;;;;25.97;12.63;;;;;;;0.98;93.04;100179.19;4954093;28;20223;-75
2021/11/29 04:35:19;;;;;;;26.00;13.20;;;;;;;0.99;93.28;100189.34;4954089;28;20196;-75
2021/11/29 04:37:45;;;;;;;30.40;14.83;;;;;;;1.01;93.26;100191.94;4952839;29;20236;-75
2021/11/29 04:40:12;;;;;;;27.30;13.93;;;;;;;1.01;93.11;100192.78;4953910;28;20189;-75
2021/11/29 04:42:38;;;;;;;25.30;13.67;;;;;;;1.01;94.39;100192.78;4952775;28;20217;-75
2021/11/29 04:45:04;;;;;;;25.57;12.33;;;;;;;1.02;93.96;100189.50;4953517;28;20188;-75
2021/11/29 04:47:30;;;;;;;24.93;13.10;;;;;;;1.06;94.00;100185.44;4968200;28;20666;-75
2021/11/29 04:49:55;;;;;;;25.03;12.77;;;;;;;1.06;93.72;100181.25;4953214;28;20217;-75
2021/11/29 04:52:21;;;;;;;28.40;14.00;;;;;;;1.07;94.09;100190.56;4953892;28;20201;-75
2021/11/29 04:54:46;;;;;;;24.30;12.83;;;;;;;1.03;93.77;100196.25;4952750;29;20216;-75
2021/11/29 04:57:12;;;;;;;25.13;12.33;;;;;;;1.01;93.98;100196.97;4953392;28;20193;-75
2021/11/29 04:59:38;;;;;;;24.03;12.33;;;;;;;0.97;93.91;100195.97;4951995;29;20260;-75
2021/11/29 05:02:04;;;;;;;27.10;13.20;;;;;;;0.94;93.63;100198.34;4953630;28;20216;-75
2021/11/29 05:04:31;;;;;;;23.83;13.07;;;;;;;0.92;93.58;100209.16;4952334;28;20189;-75
2021/11/29 05:06:57;;;;;;;28.67;14.27;;;;;;;0.86;93.46;100211.38;4953469;28;20293;-75
2021/11/29 05:09:23;;;;;;;26.07;13.90;;;;;;;0.88;93.49;100212.31;4952820;28;20197;-75
2021/11/29 05:11:49;;;;;;;27.50;13.93;;;;;;;0.91;93.26;100215.81;4953199;28;20764;-75
2021/11/29 05:14:14;;;;;;;31.13;13.97;;;;;;;0.96;93.26;100226.13;4953168;28;20177;-75
2021/11/29 05:16:41;;;;;;;28.53;13.93;;;;;;;0.99;93.25;100226.25;4968210;28;20541;-77
2021/11/29 05:19:07;;;;;;;28.10;14.77;;;;;;;1.00;93.61;100231.38;4952959;28;20548;-75
2021/11/29 05:21:33;;;;;;;28.17;14.27;;;;;;;1.02;93.96;100239.00;4953353;28;20569;-75
2021/11/29 05:24:00;;;;;;;29.33;15.03;;;;;;;1.03;94.22;100235.69;4953534;28;20217;-75
2021/11/29 05:26:27;;;;;;;29.13;14.33;;;;;;;1.04;93.29;100234.91;4953054;28;20255;-75
2021/11/29 05:28:54;;;;;;;27.93;14.57;;;;;;;1.04;93.19;100235.78;4952876;28;20252;-76
2021/11/29 05:31:20;;;;;;;26.83;13.80;;;;;;;1.07;94.17;100252.69;4967477;28;20240;-75
2021/11/29 05:33:46;;;;;;;26.33;13.53;;;;;;;1.07;94.21;100248.53;4953139;28;20193;-75
2021/11/29 05:36:12;;;;;;;28.27;14.43;;;;;;;1.10;93.96;100253.69;4953076;28;20194;-75
2021/11/29 05:38:38;;;;;;;27.73;14.70;;;;;;;1.15;93.48;100257.28;4967499;28;20185;-75
2021/11/29 05:41:03;;;;;;;27.73;14.63;;;;;;;1.17;93.69;100264.91;4952664;28;20205;-75
2021/11/29 05:43:30;;;;;;;26.07;14.33;;;;;;;1.20;93.73;100265.06;4953149;28;20309;-75
2021/11/29 05:45:57;;;;;;;27.07;15.07;;;;;;;1.22;93.49;100266.00;4951072;28;20446;-75
2021/11/29 05:48:23;;;;;;;29.83;15.20;;;;;;;1.22;93.93;100266.88;4952437;28;20244;-75
2021/11/29 05:50:49;;;;;;;26.03;14.30;;;;;;;1.22;93.98;100258.44;4952358;28;20741;-75
2021/11/29 05:53:14;;;;;;;26.50;13.77;;;;;;;1.26;94.56;100268.75;4952435;28;20275;-75
2021/11/29 05:55:40;;;;;;;25.57;13.10;;;;;;;1.27;94.58;100273.00;4952430;28;20247;-75
2021/11/29 05:58:05;;;;;;;25.23;13.40;;;;;;;1.26;93.43;100272.91;4951839;28;20181;-75
2021/11/29 06:00:31;;;;;;;24.37;13.27;;;;;;;1.27;93.36;100274.63;4952107;28;20864;-75
2021/11/29 06:02:57;;;;;;;25.47;13.27;;;;;;;1.28;94.38;100281.44;4952575;28;20185;-75
2021/11/29 06:05:24;;;;;;;25.20;13.77;;;;;;;1.29;94.52;100281.47;4951981;28;20193;-75
2021/11/29 06:07:49;;;;;;;24.97;14.07;;;;;;;1.30;93.95;100285.75;4952082;28;20675;-75
2021/11/29 06:10:15;;;;;;;26.87;14.03;;;;;;;1.31;94.30;100290.00;4951944;28;20200;-75
2021/11/29 06:12:43;;;;;;;22.77;12.97;;;;;;;1.32;94.48;100289.19;4952416;28;20224;-75
2021/11/29 06:15:10;;;;;;;22.17;12.37;;;;;;;1.36;93.80;100295.22;4966769;28;20737;-75
2021/11/29 06:17:36;;;;;;;23.43;13.07;;;;;;;1.32;93.65;100298.44;4951976;28;20188;-75
2021/11/29 06:20:02;;;;;;;22.30;13.07;;;;;;;1.34;94.25;100302.75;4951651;28;20201;-75
2021/11/29 06:22:28;;;;;;;22.23;12.97;;;;;;;1.33;94.02;100308.56;4952345;28;20720;-75
2021/11/29 06:24:54;;;;;;;23.27;12.87;;;;;;;1.32;94.04;100321.13;4952269;28;20209;-75
2021/11/29 06:27:20;;;;;;;20.40;12.40;;;;;;;1.30;94.01;100320.16;4952380;28;20244;-75
2021/11/29 06:29:46;;;;;;;23.60;12.73;;;;;;;1.31;93.87;100315.19;4951221;28;20226;-75
2021/11/29 06:32:12;;;;;;;21.13;12.27;;;;;;;1.32;93.54;100329.53;4952198;28;20209;-75
2021/11/29 06:34:38;;;;;;;22.93;12.80;;;;;;;1.31;93.88;100329.44;4952168;29;20549;-75
2021/11/29 06:37:03;;;;;;;21.67;12.53;;;;;;;1.32;93.90;100337.09;4952372;28;20185;-75
2021/11/29 06:39:31;;;;;;;22.67;12.43;;;;;;;1.30;94.81;100335.28;4951728;28;20536;-75
2021/11/29 06:41:57;;;;;;;20.27;12.47;;;;;;;1.30;94.40;100336.16;4951800;28;20204;-75
2021/11/29 06:44:22;;;;;;;21.50;12.53;;;;;;;1.31;94.65;100340.41;4950418;29;20545;-75
2021/11/29 06:46:48;;;;;;;23.60;12.90;;;;;;;1.33;94.90;100340.50;4951470;28;20193;-74
2021/11/29 06:49:13;;;;;;;22.67;11.87;;;;;;;1.33;94.80;100348.06;4951617;28;20213;-75
2021/11/29 06:51:39;;;;;;;21.83;12.67;;;;;;;1.34;93.92;100352.31;4951774;28;20291;-75
2021/11/29 06:54:04;;;;;;;21.50;12.03;;;;;;;1.32;94.24;100349.69;4951795;28;20197;-75
2021/11/29 06:56:30;;;;;;;21.03;12.03;;;;;;;1.33;94.45;100351.41;4951821;28;20191;-75
2021/11/29 06:58:56;;;;;;;21.57;12.17;;;;;;;1.31;94.53;100360.59;4951889;28;20185;-75
2021/11/29 07:01:21;;;;;;;19.77;11.50;;;;;;;1.33;94.78;100365.72;4950646;28;20319;-75
2021/11/29 07:03:49;;;;;;;22.90;13.27;;;;;;;1.35;94.54;100364.09;4951793;28;20544;-75
2021/11/29 07:06:15;;;;;;;23.00;12.10;;;;;;;1.35;94.86;100372.56;4951768;28;20189;-74
2021/11/29 07:08:40;;;;;;;21.33;12.60;;;;;;;1.35;94.52;100372.56;4951122;28;20209;-75
2021/11/29 07:11:06;;;;;;;21.37;12.23;;;;;;;1.34;93.85;100368.31;4950261;28;20295;-75
2021/11/29 07:13:32;;;;;;;21.43;11.40;;;;;;;1.36;94.26;100376.78;4951658;28;20185;-76
2021/11/29 07:15:58;;;;;;;20.70;11.73;;;;;;;1.36;93.73;100381.84;4950262;28;20197;-75
2021/11/29 07:18:23;;;;;;;21.20;12.13;;;;;;;1.38;94.66;100389.47;4949729;29;20201;-75
2021/11/29 07:20:49;;;;;;;23.27;13.07;;;;;;;1.38;93.51;100387.81;4966135;28;20254;-75
2021/11/29 07:23:15;;;;;;;22.80;12.67;;;;;;;1.42;94.32;100388.84;4968983;28;20191;-75
2021/11/29 07:25:41;;;;;;;21.20;11.93;;;;;;;1.39;93.72;100391.19;4951522;28;20184;-75
2021/11/29 07:28:06;;;;;;;22.43;12.80;;;;;;;1.40;94.39;100391.28;4951050;28;20217;-76
2021/11/29 07:30:32;;;;;;;21.77;12.80;;;;;;;1.41;94.09;100395.53;4951028;28;20239;-75
2021/11/29 07:32:58;;;;;;;20.93;12.43;;;;;;;1.43;93.80;100409.09;4950420;29;20845;-75
2021/11/29 07:35:27;;;;;;;22.27;12.30;;;;;;;1.46;93.25;100416.78;4951408;28;20252;-75
2021/11/29 07:37:52;;;;;;;20.60;12.03;;;;;;;1.48;93.05;100420.25;4966241;28;20701;-75
2021/11/29 07:40:19;;;;;;;19.63;11.77;;;;;;;1.49;92.78;100419.47;4951063;28;20220;-75
2021/11/29 07:42:44;;;;;;;23.30;12.80;;;;;;;1.51;93.36;100417.88;4951078;28;20205;-75
2021/11/29 07:45:12;;;;;;;21.00;12.50;;;;;;;1.49;93.13;100418.59;4951570;28;20190;-75
2021/11/29 07:47:43;;;;;;;19.53;12.00;;;;;;;1.51;93.47;100424.59;4951576;28;20191;-75
2021/11/29 07:50:11;;;;;;;20.97;12.37;;;;;;;1.51;93.48;100429.63;4951002;28;20205;-75
2021/11/29 07:52:37;;;;;;;24.20;13.40;;;;;;;1.50;93.44;100432.91;4951236;28;20208;-75
2021/11/29 07:55:07;;;;;;;21.17;12.67;;;;;;;1.52;93.41;100434.72;4949985;29;20185;-75
2021/11/29 07:57:33;;;;;;;21.03;12.53;;;;;;;1.53;92.73;100439.00;4951293;28;20189;-75
2021/11/29 08:00:02;;;;;;;22.83;12.87;;;;;;;1.55;93.01;100444.09;4965877;28;20608;-75
2021/11/29 08:02:30;;;;;;;20.50;12.07;;;;;;;1.55;93.73;100437.41;4951498;28;20209;-75
2021/11/29 08:04:55;;;;;;;24.53;14.20;;;;;;;1.58;93.27;100446.78;4951311;28;20243;-75
2021/11/29 08:07:21;;;;;;;22.70;12.87;;;;;;;1.60;93.88;100451.09;4951142;28;20205;-75
2021/11/29 08:09:47;;;;;;;22.23;13.00;;;;;;;1.59;93.90;100445.97;4949580;29;20276;-75
2021/11/29 08:12:13;;;;;;;24.43;13.07;;;;;;;1.61;93.85;100454.50;4951169;28;20220;-75
2021/11/29 08:14:39;;;;;;;24.10;14.00;;;;;;;1.64;93.52;100447.94;4951083;28;20181;-75
2021/11/29 08:17:04;;;;;;;22.70;12.73;;;;;;;1.67;94.03;100463.22;4951099;28;20190;-75
2021/11/29 08:19:30;;;;;;;23.30;13.27;;;;;;;1.69;93.20;100465.81;4950663;28;20205;-75
2021/11/29 08:21:55;;;;;;;22.70;13.37;;;;;;;1.69;93.61;100466.69;4951769;28;20211;-75
2021/11/29 08:24:21;;;;;;;25.30;13.47;;;;;;;1.71;93.44;100470.16;4954559;28;20177;-75
2021/11/29 08:26:46;;;;;;;28.87;14.57;;;;;;;1.74;94.20;100475.31;4954553;28;20213;-75
2021/11/29 08:29:12;;;;;;;26.57;14.30;;;;;;;1.77;93.93;100478.00;4952795;28;20208;-76
2021/11/29 08:31:37;;;;;;;27.47;14.63;;;;;;;1.75;93.82;100482.09;4953910;28;20395;-75
2021/11/29 08:34:03;;;;;;;24.73;14.07;;;;;;;1.77;93.47;100484.69;4954070;28;20189;-72
2021/11/29 08:36:29;;;;;;;28.73;15.70;;;;;;;1.81;93.10;100484.94;4954252;28;20193;-75
2021/11/29 08:38:55;;;;;;;28.27;14.87;;;;;;;1.87;93.47;100491.91;4953908;28;20837;-71
2021/11/29 08:41:21;;;;;;;27.47;14.90;;;;;;;1.90;93.14;100490.41;4952814;28;20209;-74
2021/11/29 08:43:48;;;;;;;27.40;15.90;;;;;;;1.93;93.26;100487.19;4951412;28;20233;-72
2021/11/29 08:46:13;;;;;;;30.27;16.33;;;;;;;1.99;93.01;100488.34;4953720;28;20745;-75
2021/11/29 08:48:39;;;;;;;28.70;14.97;;;;;;;2.02;93.82;100483.41;4952922;28;20217;-73
2021/11/29 08:51:05;;;;;;;30.17;15.27;;;;;;;2.02;92.95;100482.56;4953599;28;20240;-74
2021/11/29 08:53:31;;;;;;;28.83;15.63;;;;;;;2.05;92.60;100492.78;4953594;28;20235;-74
2021/11/29 08:55:57;;;;;;;27.37;14.63;;;;;;;2.10;93.40;100491.34;4953789;28;20402;-75
2021/11/29 08:58:23;;;;;;;27.43;15.60;;;;;;;2.11;93.68;100498.97;4952299;29;20561;-74
2021/11/29 09:00:52;;;;;;;26.27;15.53;;;;;;;2.10;93.55;100503.94;4953252;28;20729;-75
2021/11/29 09:03:18;;;;;;;26.87;15.70;;;;;;;2.14;92.62;100508.34;4953414;28;20185;-74
2021/11/29 09:05:45;;;;;;;28.53;14.77;;;;;;;2.16;93.07;100507.63;4953455;28;20711;-75
2021/11/29 09:08:12;;;;;;;28.73;15.63;;;;;;;2.41;93.18;100514.69;4952948;28;20213;-73
2021/11/29 09:10:39;;;;;;;31.93;16.00;;;;;;;2.58;93.92;100516.34;4953206;28;20189;-73
2021/11/29 09:13:05;;;;;;;28.43;15.57;;;;;;;2.67;93.68;100516.75;4953233;28;20236;-72
2021/11/29 09:15:30;;;;;;;24.97;14.63;;;;;;;2.76;92.90;100512.09;4953301;28;20239;-73
2021/11/29 09:17:56;;;;;;;26.63;15.70;;;;;;;2.83;93.00;100512.44;4953033;28;20196;-74
2021/11/29 09:20:23;;;;;;;24.97;13.50;;;;;;;2.96;91.95;100512.19;4953147;28;20193;-71
2021/11/29 09:22:50;;;;;;;24.20;14.03;;;;;;;2.86;90.91;100522.69;4952001;28;20344;-75
2021/11/29 09:25:16;;;;;;;24.00;14.07;;;;;;;2.84;90.69;100534.38;4953282;28;20191;-74
2021/11/29 09:27:43;;;;;;;27.20;15.70;;;;;;;2.75;91.48;100533.97;4951521;29;20339;-73
2021/11/29 09:30:11;;;;;;;27.10;15.50;;;;;;;2.73;91.61;100537.22;4952736;28;20194;-73
2021/11/29 09:32:38;;;;;;;26.63;15.23;;;;;;;2.71;91.91;100544.75;4952961;28;20647;-73
2021/11/29 09:35:21;;;;;;;24.80;14.50;;;;;;;2.75;91.71;100541.56;4952023;29;20390;-73
2021/11/29 09:37:48;;;;;;;27.13;14.40;;;;;;;2.80;91.20;100549.38;4952654;28;20177;-73
2021/11/29 09:40:23;;;;;;;25.57;15.70;;;;;;;2.83;91.68;100550.34;4952566;28;20182;-72
2021/11/29 09:42:49;;;;;;;24.90;15.40;;;;;;;2.79;91.42;100553.53;4952568;28;20236;-75
2021/11/29 09:45:17;;;;;;;26.90;15.97;;;;;;;2.79;91.75;100552.66;4952617;28;20177;-74
2021/11/29 09:47:43;;;;;;;27.77;16.13;;;;;;;2.78;91.73;100553.47;4952143;28;20182;-74
2021/11/29 09:50:10;;;;;;;26.70;15.30;;;;;;;2.76;92.17;100555.91;4952267;28;20594;-73
2021/11/29 09:52:36;;;;;;;28.87;16.43;;;;;;;2.75;92.03;100561.78;4967022;28;20268;-73
2021/11/29 09:55:04;;;;;;;28.03;15.00;;;;;;;2.79;91.96;100567.81;4952355;28;20190;-73
2021/11/29 09:57:30;;;;;;;29.33;16.70;;;;;;;2.85;91.47;100566.44;4952405;28;20559;-71
2021/11/29 09:59:56;;;;;;;26.57;15.53;;;;;;;2.85;91.87;100570.66;4952277;28;20184;-73
2021/11/29 10:02:21;;;;;;;28.17;16.53;;;;;;;2.86;91.48;100570.72;4922466;28;20237;-74
2021/11/29 10:04:49;;;;;;;26.73;15.17;;;;;;;2.94;91.96;100571.91;4945844;28;20207;-73
2021/11/29 10:07:33;;;;;;;26.07;14.77;;;;;;;2.94;91.04;100571.91;4963371;28;20330;-73
2021/11/29 10:10:19;;;;;;;32.00;18.23;;;;;;;3.04;90.96;100568.16;4937450;29;20702;-72
2021/11/29 10:12:49;;;;;;;28.13;17.53;;;;;;;3.11;90.90;100578.59;4952197;28;20620;-72
2021/11/29 10:15:21;;;;;;;28.17;17.07;;;;;;;3.15;91.16;100577.94;4966656;28;20554;-75
2021/11/29 10:17:51;;;;;;;32.03;19.10;;;;;;;3.10;91.42;100586.09;4966417;28;20189;-72
2021/11/29 10:20:16;;;;;;;31.13;18.53;;;;;;;3.12;91.01;100589.59;4951586;28;20269;-72
2021/11/29 10:23:03;;;;;;;28.53;16.23;;;;;;;3.00;90.57;100583.97;4951556;28;20865;-72
2021/11/29 10:25:29;;;;;;;28.53;16.77;;;;;;;2.97;91.34;100584.72;4951814;28;20260;-72
2021/11/29 10:27:55;;;;;;;33.77;19.73;;;;;;;3.00;91.21;100591.56;4950698;28;20192;-73
2021/11/29 10:30:24;;;;;;;30.17;17.40;;;;;;;2.92;91.02;100583.63;4950121;28;20228;-74
2021/11/29 10:32:51;;;;;;;29.43;16.73;;;;;;;2.93;91.40;100592.94;4951780;28;20267;-74
2021/11/29 10:35:36;;;;;;;29.77;17.37;;;;;;;2.95;91.26;100586.28;4951338;28;20588;-72
2021/11/29 10:38:05;;;;;;;28.80;15.87;;;;;;;3.07;91.30;100586.84;4951619;28;20276;-73
2021/11/29 10:40:31;;;;;;;28.23;16.87;;;;;;;3.17;90.90;100586.44;4966420;28;20193;-73
2021/11/29 10:43:07;;;;;;;27.90;16.77;;;;;;;3.28;90.77;100590.34;4951838;28;20184;-74
2021/11/29 10:45:39;;;;;;;28.90;16.00;;;;;;;3.39;91.34;100584.06;4951599;28;20283;-72
2021/11/29 10:48:23;;;;;;;23.97;15.57;;;;;;;3.60;90.22;100585.00;4951504;28;20181;-72
2021/11/29 10:51:06;;;;;;;27.83;16.63;;;;;;;3.75;89.21;100583.09;4951462;28;20251;-72
2021/11/29 10:53:45;;;;;;;24.90;15.63;;;;;;;4.14;88.54;100571.19;4951449;28;20674;-73
2021/11/29 10:56:11;;;;;;;21.17;13.37;;;;;;;5.22;84.47;100571.19;4951298;28;20180;-73
2021/11/29 10:58:45;;;;;;;22.10;14.83;;;;;;;5.01;84.29;100574.63;4969940;28;20184;-72
2021/11/29 11:01:14;;;;;;;17.00;12.37;;;;;;;4.90;84.17;100566.59;4970498;28;20212;-72
2021/11/29 11:03:54;;;;;;;21.93;14.23;;;;;;;4.52;85.16;100584.56;4964138;28;20243;-72
2021/11/29 11:06:28;;;;;;;22.20;14.23;;;;;;;4.56;85.77;100590.63;4970350;28;20294;-72
2021/11/29 11:08:54;;;;;;;21.97;14.57;;;;;;;4.47;86.32;100588.56;4968769;28;20274;-72
2021/11/29 11:11:39;;;;;;;19.00;13.83;;;;;;;4.36;87.73;100592.38;4970270;28;20200;-72
2021/11/29 11:14:20;;;;;;;22.67;14.43;;;;;;;4.44;87.25;100597.75;4931711;29;20193;-73
2021/11/29 11:16:56;;;;;;;22.83;15.47;;;;;;;4.43;87.83;100604.50;4931875;29;20197;-72